createdAt,value
2018-02-16T00:00:45.566Z,79.40
2018-02-16T00:03:12.231Z,58.87
2018-02-16T00:05:38.923Z,64.50
2018-02-16T00:08:05.585Z,64.93
2018-02-16T00:10:32.233Z,72.87
2018-02-16T00:12:58.901Z,78.43
2018-02-16T00:15:25.582Z,67.35
2018-02-16T00:17:52.435Z,67.53
2018-02-16T00:20:19.793Z,78.62
2018-02-16T00:22:46.575Z,68.80
2018-02-16T00:25:13.461Z,58.60
2018-02-16T00:27:40.275Z,70.62
2018-02-16T00:30:07.071Z,71.03
2018-02-16T00:32:33.865Z,65.45
2018-02-16T00:35:02.775Z,64.75
2018-02-16T00:37:33.909Z,73.95
2018-02-16T00:40:03.647Z,83.65
2018-02-16T00:42:30.453Z,66.97
2018-02-16T00:44:57.841Z,66.22
2018-02-16T00:47:24.758Z,68.60
2018-02-16T00:49:51.508Z,72.55
2018-02-16T00:52:18.336Z,64.10
2018-02-16T00:54:45.101Z,68.45
2018-02-16T00:57:11.945Z,64.35
2018-02-16T00:59:38.724Z,72.78
2018-02-16T01:02:05.504Z,67.22
2018-02-16T01:04:32.387Z,76.90
2018-02-16T01:06:59.250Z,74.35
2018-02-16T01:09:26.058Z,67.70
2018-02-16T01:11:52.973Z,72.80
2018-02-16T01:14:19.857Z,70.28
2018-02-16T01:16:46.699Z,71.40
2018-02-16T01:19:13.591Z,85.97
2018-02-16T01:21:40.432Z,80.40
2018-02-16T01:24:07.207Z,74.60
2018-02-16T01:26:34.059Z,63.70
2018-02-16T01:29:00.895Z,71.10
2018-02-16T01:31:27.663Z,68.53
2018-02-16T01:33:56.595Z,71.53
2018-02-16T01:36:23.602Z,71.57
2018-02-16T01:38:50.416Z,72.95
2018-02-16T01:41:17.266Z,61.80
2018-02-16T01:43:45.112Z,74.37
2018-02-16T01:46:12.613Z,62.95
2018-02-16T01:48:39.418Z,59.58
2018-02-16T01:51:06.253Z,55.92
2018-02-16T01:53:32.933Z,70.72
2018-02-16T01:55:59.699Z,65.05
2018-02-16T01:58:26.486Z,61.28
2018-02-16T02:00:53.259Z,63.72
2018-02-16T02:03:20.098Z,64.97
2018-02-16T02:05:47.357Z,60.95
2018-02-16T02:08:14.219Z,55.95
2018-02-16T02:10:40.912Z,58.83
2018-02-16T02:13:07.898Z,50.05
2018-02-16T02:15:34.727Z,66.87
2018-02-16T02:18:01.463Z,56.28
2018-02-16T02:20:28.433Z,51.63
2018-02-16T02:22:55.232Z,56.72
2018-02-16T02:25:22.040Z,44.42
2018-02-16T02:27:48.760Z,62.35
2018-02-16T02:30:15.658Z,54.90
2018-02-16T02:32:42.485Z,61.05
2018-02-16T02:35:09.227Z,44.03
2018-02-16T02:37:36.106Z,48.45
2018-02-16T02:40:02.858Z,44.05
2018-02-16T02:42:29.562Z,49.30
2018-02-16T02:44:56.376Z,44.35
2018-02-16T02:47:23.170Z,48.63
2018-02-16T02:49:49.910Z,44.40
2018-02-16T02:52:16.642Z,38.75
2018-02-16T02:54:43.400Z,43.20
2018-02-16T02:57:10.124Z,48.95
2018-02-16T02:59:36.961Z,45.70
2018-02-16T03:02:03.739Z,46.33
2018-02-16T03:04:30.519Z,40.92
2018-02-16T03:06:57.299Z,41.33
2018-02-16T03:09:24.103Z,38.35
2018-02-16T03:11:50.982Z,41.78
2018-02-16T03:14:17.788Z,34.72
2018-02-16T03:16:44.551Z,42.95
2018-02-16T03:19:11.357Z,35.75
2018-02-16T03:21:38.124Z,43.55
2018-02-16T03:24:04.936Z,47.05
2018-02-16T03:26:31.802Z,44.20
2018-02-16T03:28:58.665Z,45.70
2018-02-16T03:31:25.536Z,44.67
2018-02-16T03:33:52.533Z,43.22
2018-02-16T03:36:20.188Z,61.63
2018-02-16T03:38:47.003Z,50.00
2018-02-16T03:41:13.877Z,46.20
2018-02-16T03:43:40.650Z,44.10
2018-02-16T03:46:07.474Z,43.47
2018-02-16T03:48:34.437Z,49.90
2018-02-16T03:51:01.241Z,47.25
2018-02-16T03:53:28.220Z,41.65
2018-02-16T03:55:55.377Z,48.35
2018-02-16T03:58:22.266Z,47.55
2018-02-16T04:00:49.111Z,45.80
2018-02-16T04:03:15.924Z,51.67
2018-02-16T04:05:42.878Z,47.97
2018-02-16T04:08:09.684Z,48.70
2018-02-16T04:10:36.505Z,45.35
2018-02-16T04:13:03.322Z,44.95
2018-02-16T04:15:30.143Z,47.75
2018-02-16T04:17:56.964Z,46.20
2018-02-16T04:20:23.820Z,41.30
2018-02-16T04:22:50.843Z,39.72
2018-02-16T04:25:17.633Z,47.28
2018-02-16T04:27:44.418Z,36.90
2018-02-16T04:30:11.346Z,46.50
2018-02-16T04:32:38.191Z,48.85
2018-02-16T04:35:05.008Z,38.47
2018-02-16T04:37:31.785Z,41.75
2018-02-16T04:39:58.518Z,41.80
2018-02-16T04:42:25.352Z,43.22
2018-02-16T04:44:52.191Z,43.50
2018-02-16T04:47:18.923Z,42.58
2018-02-16T04:49:45.715Z,42.25
2018-02-16T04:52:12.447Z,40.03
2018-02-16T04:54:39.301Z,42.30
2018-02-16T04:57:06.061Z,49.63
2018-02-16T04:59:32.875Z,44.28
2018-02-16T05:01:59.721Z,48.13
2018-02-16T05:04:26.616Z,40.53
2018-02-16T05:06:53.481Z,40.42
2018-02-16T05:09:20.478Z,42.95
2018-02-16T05:11:47.213Z,42.65
2018-02-16T05:14:14.042Z,46.95
2018-02-16T05:16:40.854Z,42.45
2018-02-16T05:19:07.574Z,49.20
2018-02-16T05:21:34.610Z,43.25
2018-02-16T05:24:01.408Z,49.53
2018-02-16T05:26:28.128Z,49.20
2018-02-16T05:28:54.955Z,52.03
2018-02-16T05:31:21.735Z,40.55
2018-02-16T05:33:48.501Z,75.00
2018-02-16T05:36:15.294Z,47.70
2018-02-16T05:38:42.086Z,65.10
2018-02-16T05:41:08.816Z,53.25
2018-02-16T05:43:35.597Z,47.13
2018-02-16T05:46:02.400Z,53.87
2018-02-16T05:48:29.220Z,49.70
2018-02-16T05:50:56.038Z,41.92
2018-02-16T05:53:22.830Z,51.25
2018-02-16T05:55:49.733Z,53.10
2018-02-16T05:58:16.514Z,49.90
2018-02-16T06:00:43.449Z,62.05
2018-02-16T06:03:10.256Z,59.22
2018-02-16T06:05:37.057Z,55.55
2018-02-16T06:08:04.743Z,61.50
2018-02-16T06:10:31.510Z,59.83
2018-02-16T06:12:58.262Z,52.88
2018-02-16T06:15:25.105Z,61.80
2018-02-16T06:17:51.926Z,63.10
2018-02-16T06:20:18.680Z,65.35
2018-02-16T06:22:45.500Z,60.55
2018-02-16T06:25:12.276Z,58.78
2018-02-16T06:27:38.997Z,62.67
2018-02-16T06:30:05.806Z,62.42
2018-02-16T06:32:32.826Z,56.97
2018-02-16T06:34:59.734Z,62.10
2018-02-16T06:37:26.631Z,64.97
2018-02-16T06:39:53.521Z,60.15
2018-02-16T06:42:20.263Z,54.75
2018-02-16T06:44:47.079Z,62.90
2018-02-16T06:47:13.906Z,57.10
2018-02-16T06:49:40.691Z,60.33
2018-02-16T06:52:07.421Z,61.47
2018-02-16T06:54:34.311Z,64.60
2018-02-16T06:57:01.090Z,62.65
2018-02-16T06:59:27.944Z,64.45
2018-02-16T07:01:54.773Z,53.58
2018-02-16T07:04:21.669Z,61.45
2018-02-16T07:06:48.632Z,65.72
2018-02-16T07:09:15.387Z,54.28
2018-02-16T07:11:42.232Z,54.70
2018-02-16T07:14:09.125Z,56.13
2018-02-16T07:16:35.918Z,58.35
2018-02-16T07:19:02.753Z,54.92
2018-02-16T07:21:29.786Z,54.60
2018-02-16T07:23:56.460Z,60.47
2018-02-16T07:26:23.126Z,59.85
2018-02-16T07:28:49.759Z,60.08
2018-02-16T07:31:16.395Z,52.70
2018-02-16T07:33:43.407Z,47.95
2018-02-16T07:36:10.045Z,53.38
2018-02-16T07:38:36.695Z,46.10
2018-02-16T07:41:03.341Z,48.70
2018-02-16T07:43:29.987Z,41.67
2018-02-16T07:45:56.623Z,45.00
2018-02-16T07:48:23.282Z,43.78
2018-02-16T07:50:49.914Z,42.17
2018-02-16T07:53:16.564Z,45.67
2018-02-16T07:55:43.216Z,38.55
2018-02-16T07:58:09.870Z,47.25
2018-02-16T08:00:36.518Z,50.30
2018-02-16T08:03:03.175Z,40.38
2018-02-16T08:05:29.820Z,47.85
2018-02-16T08:07:56.485Z,41.25
2018-02-16T08:10:23.122Z,41.03
2018-02-16T08:12:49.767Z,43.40
2018-02-16T08:15:16.429Z,40.90
2018-02-16T08:17:43.086Z,46.83
2018-02-16T08:20:09.735Z,46.25
2018-02-16T08:22:36.404Z,35.88
2018-02-16T08:25:03.052Z,41.45
2018-02-16T08:27:29.687Z,43.65
2018-02-16T08:29:56.362Z,34.40
2018-02-16T08:32:23.003Z,41.00
2018-02-16T08:34:49.672Z,35.40
2018-02-16T08:37:16.339Z,33.92
2018-02-16T08:39:43.007Z,33.53
2018-02-16T08:42:09.648Z,34.08
2018-02-16T08:44:36.343Z,29.45
2018-02-16T08:47:02.967Z,31.75
2018-02-16T08:49:29.635Z,31.23
2018-02-16T08:51:56.388Z,31.65
2018-02-16T08:54:23.043Z,31.73
2018-02-16T08:56:49.684Z,29.50
2018-02-16T08:59:16.348Z,31.98
2018-02-16T09:01:43.007Z,34.42
2018-02-16T09:04:09.717Z,30.40
2018-02-16T09:06:36.361Z,29.77
2018-02-16T09:09:03.051Z,31.13
2018-02-16T09:11:29.713Z,30.37
2018-02-16T09:13:56.369Z,27.80
2018-02-16T09:16:23.017Z,28.20
2018-02-16T09:18:49.743Z,28.40
2018-02-16T09:21:16.500Z,30.70
2018-02-16T09:23:43.188Z,29.27
2018-02-16T09:26:09.842Z,27.53
2018-02-16T09:28:36.482Z,27.87
2018-02-16T09:31:03.293Z,26.77
2018-02-16T09:33:29.977Z,28.43
2018-02-16T09:35:56.679Z,24.80
2018-02-16T09:38:23.331Z,25.90
2018-02-16T09:40:49.987Z,26.40
2018-02-16T09:43:16.623Z,26.50
2018-02-16T09:45:43.298Z,22.90
2018-02-16T09:48:10.165Z,23.07
2018-02-16T09:50:36.845Z,23.93
2018-02-16T09:53:03.652Z,24.23
2018-02-16T09:55:30.338Z,23.40
2018-02-16T09:57:57.016Z,21.50
2018-02-16T10:00:23.956Z,22.40
2018-02-16T10:02:50.661Z,23.17
2018-02-16T10:05:17.399Z,22.73
2018-02-16T10:07:44.086Z,26.90
2018-02-16T10:10:10.843Z,24.60
2018-02-16T10:12:37.516Z,27.85
2018-02-16T10:15:04.250Z,26.77
2018-02-16T10:17:30.968Z,26.75
2018-02-16T10:19:57.633Z,25.15
2018-02-16T10:22:24.278Z,27.15
2018-02-16T10:24:51.195Z,27.20
2018-02-16T10:27:17.866Z,30.00
2018-02-16T10:29:44.517Z,28.52
2018-02-16T10:32:11.171Z,30.98
2018-02-16T10:34:37.815Z,33.95
2018-02-16T10:37:04.474Z,32.33
2018-02-16T10:39:31.135Z,26.33
2018-02-16T10:41:57.786Z,26.45
2018-02-16T10:44:24.419Z,28.48
2018-02-16T10:46:51.138Z,25.20
2018-02-16T10:49:17.836Z,25.23
2018-02-16T10:51:44.501Z,27.27
2018-02-16T10:54:11.168Z,31.08
2018-02-16T10:56:37.834Z,24.73
2018-02-16T10:59:04.494Z,29.17
2018-02-16T11:01:37.002Z,28.77
2018-02-16T11:04:03.660Z,31.30
2018-02-16T11:06:48.217Z,27.27
2018-02-16T11:09:20.667Z,21.52
2018-02-16T11:11:47.410Z,25.83
2018-02-16T11:14:14.068Z,23.27
2018-02-16T11:16:40.713Z,23.23
2018-02-16T11:19:07.360Z,22.33
2018-02-16T11:21:34.031Z,28.58
2018-02-16T11:24:00.703Z,28.17
2018-02-16T11:26:27.379Z,26.65
2018-02-16T11:28:54.050Z,23.52
2018-02-16T11:31:20.711Z,23.60
2018-02-16T11:33:47.357Z,28.33
2018-02-16T11:36:14.018Z,29.95
2018-02-16T11:38:40.659Z,26.87
2018-02-16T11:41:07.362Z,23.92
2018-02-16T11:43:34.010Z,24.45
2018-02-16T11:46:00.657Z,23.50
2018-02-16T11:48:27.314Z,22.98
2018-02-16T11:50:53.949Z,20.52
2018-02-16T11:53:20.607Z,21.83
2018-02-16T11:55:47.284Z,23.83
2018-02-16T11:58:13.964Z,28.90
2018-02-16T12:00:40.635Z,24.98
2018-02-16T12:03:07.393Z,30.27
2018-02-16T12:05:34.047Z,26.10
2018-02-16T12:08:00.720Z,27.98
2018-02-16T12:10:27.396Z,32.25
2018-02-16T12:12:54.081Z,22.80
2018-02-16T12:15:20.741Z,19.73
2018-02-16T12:17:47.386Z,22.10
2018-02-16T12:20:14.024Z,19.52
2018-02-16T12:22:40.691Z,19.83
2018-02-16T12:25:07.332Z,21.42
2018-02-16T12:27:33.987Z,22.67
2018-02-16T12:30:00.644Z,17.77
2018-02-16T12:32:27.308Z,21.75
2018-02-16T12:34:53.950Z,18.08
2018-02-16T12:37:20.628Z,19.10
2018-02-16T12:39:47.274Z,24.15
2018-02-16T12:42:13.956Z,24.65
2018-02-16T12:44:40.639Z,16.10
2018-02-16T12:47:07.312Z,18.65
2018-02-16T12:49:33.955Z,17.50
2018-02-16T12:52:00.591Z,17.58
2018-02-16T12:54:27.276Z,20.95
2018-02-16T12:56:53.948Z,16.42
2018-02-16T12:59:20.594Z,20.27
2018-02-16T13:01:47.239Z,22.75
2018-02-16T13:04:13.909Z,19.33
2018-02-16T13:06:40.549Z,16.23
2018-02-16T13:09:07.211Z,18.95
2018-02-16T13:11:33.860Z,25.33
2018-02-16T13:14:00.514Z,16.30
2018-02-16T13:16:27.156Z,19.12
2018-02-16T13:18:53.907Z,16.20
2018-02-16T13:21:20.547Z,19.67
2018-02-16T13:23:47.216Z,18.90
2018-02-16T13:26:13.879Z,17.30
2018-02-16T13:28:40.521Z,15.10
2018-02-16T13:31:07.182Z,14.27
2018-02-16T13:33:33.821Z,18.10
2018-02-16T13:36:00.490Z,15.75
2018-02-16T13:38:27.142Z,17.42
2018-02-16T13:40:53.839Z,16.10
2018-02-16T13:43:20.524Z,16.80
2018-02-16T13:45:47.227Z,23.00
2018-02-16T13:48:13.883Z,17.98
2018-02-16T13:50:40.539Z,14.02
2018-02-16T13:53:07.201Z,17.48
2018-02-16T13:55:33.942Z,18.67
2018-02-16T13:58:00.630Z,14.68
2018-02-16T14:00:27.282Z,21.00
2018-02-16T14:02:53.967Z,24.15
2018-02-16T14:05:20.636Z,18.92
2018-02-16T14:07:47.285Z,15.30
2018-02-16T14:10:13.922Z,16.12
2018-02-16T14:12:40.590Z,19.90
2018-02-16T14:15:07.229Z,17.83
2018-02-16T14:17:33.921Z,15.23
2018-02-16T14:20:00.639Z,13.27
2018-02-16T14:22:27.288Z,15.48
2018-02-16T14:24:53.924Z,14.30
2018-02-16T14:27:20.603Z,11.82
2018-02-16T14:29:47.238Z,11.15
2018-02-16T14:32:13.910Z,14.35
2018-02-16T14:34:40.641Z,14.38
2018-02-16T14:37:07.346Z,16.05
2018-02-16T14:39:33.986Z,10.55
2018-02-16T14:42:00.637Z,16.05
2018-02-16T14:44:27.272Z,13.82
2018-02-16T14:46:53.957Z,13.05
2018-02-16T14:49:20.600Z,9.40
2018-02-16T14:51:47.260Z,12.95
2018-02-16T14:54:13.895Z,12.50
2018-02-16T14:56:40.566Z,10.00
2018-02-16T14:59:07.211Z,11.02
2018-02-16T15:01:33.866Z,15.00
2018-02-16T15:04:00.504Z,9.93
2018-02-16T15:06:27.144Z,16.62
2018-02-16T15:08:53.798Z,12.40
2018-02-16T15:11:20.460Z,14.57
2018-02-16T15:13:47.134Z,12.32
2018-02-16T15:16:13.772Z,15.00
2018-02-16T15:18:40.455Z,11.63
2018-02-16T15:21:07.108Z,15.10
2018-02-16T15:23:33.768Z,13.73
2018-02-16T15:26:00.415Z,16.60
2018-02-16T15:28:27.126Z,14.05
2018-02-16T15:30:53.786Z,16.25
2018-02-16T15:33:20.450Z,17.52
2018-02-16T15:35:47.920Z,15.10
2018-02-16T15:38:14.570Z,10.88
2018-02-16T15:40:41.203Z,12.60
2018-02-16T15:43:07.875Z,14.52
2018-02-16T15:45:34.515Z,15.55
2018-02-16T15:48:02.008Z,10.52
2018-02-16T15:50:28.648Z,12.20
2018-02-16T15:52:55.315Z,17.83
2018-02-16T15:55:21.953Z,13.50
2018-02-16T15:57:48.604Z,17.45
2018-02-16T16:00:15.244Z,16.15
2018-02-16T16:02:41.920Z,16.40
2018-02-16T16:05:08.556Z,11.27
2018-02-16T16:07:35.207Z,14.30
2018-02-16T16:10:01.877Z,11.50
2018-02-16T16:12:28.565Z,16.55
2018-02-16T16:14:55.308Z,14.82
2018-02-16T16:17:21.939Z,16.00
2018-02-16T16:19:48.610Z,10.30
2018-02-16T16:22:15.244Z,17.48
2018-02-16T16:24:41.957Z,21.25
2018-02-16T16:27:08.608Z,18.33
2018-02-16T16:29:35.276Z,14.70
2018-02-16T16:32:01.911Z,18.30
2018-02-16T16:34:28.565Z,15.35
2018-02-16T16:36:55.226Z,16.05
2018-02-16T16:39:21.880Z,16.52
2018-02-16T16:41:48.537Z,19.48
2018-02-16T16:44:15.216Z,13.50
2018-02-16T16:46:41.865Z,11.52
2018-02-16T16:49:08.536Z,11.40
2018-02-16T16:51:35.188Z,17.87
2018-02-16T16:54:01.855Z,13.70
2018-02-16T16:56:28.488Z,15.73
2018-02-16T16:58:55.168Z,17.02
2018-02-16T17:01:21.845Z,14.90
2018-02-16T17:03:48.512Z,12.55
2018-02-16T17:06:15.193Z,17.27
2018-02-16T17:08:41.844Z,13.40
2018-02-16T17:11:08.536Z,18.12
2018-02-16T17:13:35.282Z,13.45
2018-02-16T17:16:02.022Z,12.48
2018-02-16T17:18:28.663Z,10.55
2018-02-16T17:20:55.355Z,15.10
2018-02-16T17:23:22.008Z,12.90
2018-02-16T17:25:48.678Z,12.93
2018-02-16T17:28:15.359Z,16.77
2018-02-16T17:30:42.026Z,19.42
2018-02-16T17:33:08.763Z,17.40
2018-02-16T17:35:35.421Z,11.63
2018-02-16T17:38:02.051Z,12.90
2018-02-16T17:40:28.757Z,13.80
2018-02-16T17:42:55.395Z,13.65
2018-02-16T17:45:22.042Z,11.20
2018-02-16T17:47:48.704Z,15.85
2018-02-16T17:50:15.369Z,21.23
2018-02-16T17:52:42.085Z,12.55
2018-02-16T17:55:08.722Z,17.60
2018-02-16T17:57:35.376Z,14.10
2018-02-16T18:00:02.021Z,17.20
2018-02-16T18:02:28.691Z,15.18
2018-02-16T18:04:55.338Z,14.18
2018-02-16T18:07:22.005Z,21.02
2018-02-16T18:09:48.663Z,15.55
2018-02-16T18:12:15.387Z,14.27
2018-02-16T18:14:42.045Z,16.58
2018-02-16T18:17:08.745Z,16.67
2018-02-16T18:19:35.377Z,12.05
2018-02-16T18:22:02.039Z,11.77
2018-02-16T18:24:28.681Z,14.40
2018-02-16T18:26:55.335Z,13.23
2018-02-16T18:29:21.977Z,12.68
2018-02-16T18:31:48.619Z,13.73
2018-02-16T18:34:15.322Z,14.77
2018-02-16T18:36:42.039Z,20.70
2018-02-16T18:39:08.720Z,11.55
2018-02-16T18:41:35.390Z,13.48
2018-02-16T18:44:02.044Z,15.85
2018-02-16T18:46:28.709Z,12.65
2018-02-16T18:48:55.390Z,12.05
2018-02-16T18:51:22.051Z,14.25
2018-02-16T18:53:48.688Z,13.00
2018-02-16T18:56:15.462Z,14.82
2018-02-16T18:58:42.204Z,13.25
2018-02-16T19:01:08.838Z,14.45
2018-02-16T19:03:35.493Z,17.92
2018-02-16T19:06:02.138Z,13.48
2018-02-16T19:08:28.788Z,14.00
2018-02-16T19:10:55.429Z,11.75
2018-02-16T19:13:22.115Z,19.50
2018-02-16T19:15:48.756Z,12.00
2018-02-16T19:18:15.463Z,10.98
2018-02-16T19:20:42.099Z,14.00
2018-02-16T19:23:08.752Z,11.68
2018-02-16T19:25:35.392Z,15.05
2018-02-16T19:28:02.321Z,13.18
2018-02-16T19:30:28.991Z,16.77
2018-02-16T19:32:55.644Z,17.42
2018-02-16T19:35:22.280Z,12.27
2018-02-16T19:37:48.931Z,14.85
2018-02-16T19:40:15.575Z,15.63
2018-02-16T19:42:42.260Z,13.90
2018-02-16T19:45:08.896Z,13.70
2018-02-16T19:47:35.540Z,19.05
2018-02-16T19:50:02.571Z,13.57
2018-02-16T19:52:29.276Z,18.42
2018-02-16T19:54:55.961Z,19.80
2018-02-16T19:57:22.606Z,18.12
2018-02-16T19:59:49.629Z,15.60
2018-02-16T20:02:16.908Z,17.70
2018-02-16T20:04:43.659Z,12.73
2018-02-16T20:07:10.299Z,13.45
2018-02-16T20:09:37.487Z,18.15
2018-02-16T20:12:04.228Z,17.60
2018-02-16T20:14:31.204Z,16.73
2018-02-16T20:16:58.069Z,12.85
2018-02-16T20:19:24.751Z,20.67
2018-02-16T20:21:51.698Z,21.30
2018-02-16T20:24:18.415Z,14.23
2018-02-16T20:26:45.472Z,14.70
2018-02-16T20:29:12.722Z,16.45
2018-02-16T20:31:39.449Z,14.45
2018-02-16T20:34:06.121Z,18.00
2018-02-16T20:36:32.776Z,12.90
2018-02-16T20:38:59.444Z,15.88
2018-02-16T20:41:26.075Z,13.00
2018-02-16T20:43:52.785Z,16.08
2018-02-16T20:46:19.443Z,13.62
2018-02-16T20:48:46.205Z,15.48
2018-02-16T20:51:12.908Z,18.62
2018-02-16T20:53:39.566Z,21.98
2018-02-16T20:56:06.267Z,13.75
2018-02-16T20:58:32.940Z,15.10
2018-02-16T21:00:59.615Z,12.52
2018-02-16T21:03:26.275Z,14.80
2018-02-16T21:05:52.951Z,12.05
2018-02-16T21:08:19.594Z,14.38
2018-02-16T21:10:46.260Z,23.58
2018-02-16T21:13:12.899Z,20.35
2018-02-16T21:15:39.558Z,16.55
2018-02-16T21:18:06.207Z,18.05
2018-02-16T21:20:32.882Z,15.90
2018-02-16T21:22:59.549Z,15.10
2018-02-16T21:25:26.204Z,16.98
2018-02-16T21:27:52.844Z,18.10
2018-02-16T21:30:19.931Z,20.95
2018-02-16T21:32:46.594Z,14.65
2018-02-16T21:35:13.306Z,13.88
2018-02-16T21:37:39.974Z,19.52
2018-02-16T21:40:06.611Z,19.83
2018-02-16T21:42:34.168Z,17.20
2018-02-16T21:45:00.888Z,13.82
2018-02-16T21:47:27.544Z,20.35
2018-02-16T21:49:54.176Z,20.92
2018-02-16T21:52:20.827Z,20.35
2018-02-16T21:54:47.483Z,16.30
2018-02-16T21:57:14.145Z,14.80
2018-02-16T21:59:40.796Z,12.23
2018-02-16T22:02:07.470Z,14.57
2018-02-16T22:04:34.158Z,17.05
2018-02-16T22:07:00.796Z,14.55
2018-02-16T22:09:27.461Z,16.73
2018-02-16T22:11:54.126Z,17.15
2018-02-16T22:14:20.765Z,19.40
2018-02-16T22:16:47.436Z,17.05
2018-02-16T22:19:14.079Z,20.45
2018-02-16T22:21:40.770Z,15.35
2018-02-16T22:24:07.414Z,23.05
2018-02-16T22:26:34.063Z,11.88
2018-02-16T22:29:00.737Z,28.90
2018-02-16T22:31:27.390Z,24.80
2018-02-16T22:33:54.048Z,22.30
2018-02-16T22:36:20.701Z,23.55
2018-02-16T22:38:47.376Z,18.87
2018-02-16T22:41:14.076Z,23.95
2018-02-16T22:43:40.733Z,19.00
2018-02-16T22:46:07.390Z,17.62
2018-02-16T22:48:34.055Z,14.48
2018-02-16T22:51:00.698Z,15.60
2018-02-16T22:53:27.368Z,25.85
2018-02-16T22:55:54.022Z,20.80
2018-02-16T22:58:20.684Z,16.52
2018-02-16T23:00:47.341Z,17.17
2018-02-16T23:03:14.013Z,18.77
2018-02-16T23:05:40.660Z,16.37
2018-02-16T23:08:07.332Z,19.33
2018-02-16T23:10:33.987Z,14.63
2018-02-16T23:13:00.670Z,17.33
2018-02-16T23:15:27.335Z,14.95
2018-02-16T23:17:53.998Z,17.00
2018-02-16T23:20:20.689Z,32.92
2018-02-16T23:22:47.352Z,17.95
2018-02-16T23:25:13.991Z,15.00
2018-02-16T23:27:40.682Z,19.90
2018-02-16T23:30:07.338Z,17.90
2018-02-16T23:32:33.976Z,22.60
2018-02-16T23:35:00.640Z,18.70
2018-02-16T23:37:27.328Z,16.58
2018-02-16T23:39:53.990Z,24.30
2018-02-16T23:42:20.583Z,23.92
2018-02-16T23:44:47.308Z,20.80
2018-02-16T23:47:13.956Z,20.88
2018-02-16T23:49:40.645Z,21.25
2018-02-16T23:52:07.319Z,17.52
2018-02-16T23:54:34.000Z,16.60
2018-02-16T23:57:00.689Z,18.85
2018-02-16T23:59:27.352Z,19.37
